Terminal Aerodrome Forecast
Issued by NWS

Home | Current Version | Previous Version | Text Only | Print | Product List | Glossary On
Versions: 1 2 3 4 5 6 7 8 9 10 11 12 13 14 15 16 17 18 19 20 21 22 23 24 25 26
000
FTUS45 KGJT 230542
TAFDRO
TAF
KDRO 230542Z 2306/2406 35005KT P6SM SCT015 BKN035
      TEMPO 2306/2308 2SM -SN BR BKN015 OVC025
     FM230800 29009KT P6SM VCSH SCT050 BKN070
      TEMPO 2309/2312 BKN050
     FM231200 26010G15KT P6SM VCSH BKN060
     FM231900 28014G25KT P6SM FEW060 BKN120
     FM240300 29008KT P6SM SCT120=

USA.gov is the U.S. government's official web portal to all federal, state and local government web resources and services.